sensor_id;sensor_type;location;lat;lon;timestamp;P1;P2;P0
48887;PMS5003;42598;53.802;-1.632;2023-03-01T00:01:10;2;2;
48887;PMS5003;42598;53.802;-1.632;2023-03-01T00:03:42;4;3;
48887;PMS5003;42598;53.802;-1.632;2023-03-01T00:06:10;2;2;
48887;PMS5003;42598;53.802;-1.632;2023-03-01T00:08:37;3;2;
48887;PMS5003;42598;53.802;-1.632;2023-03-01T00:11:05;6;6;
48887;PMS5003;42598;53.802;-1.632;2023-03-01T00:13:34;3;3;
48887;PMS5003;42598;53.802;-1.632;2023-03-01T00:16:02;3;2;
48887;PMS5003;42598;53.802;-1.632;2023-03-01T00:18:30;3;3;
48887;PMS5003;42598;53.802;-1.632;2023-03-01T00:20:58;3;3;
48887;PMS5003;42598;53.802;-1.632;2023-03-01T00:23:27;4;3;
48887;PMS5003;42598;53.802;-1.632;2023-03-01T00:25:54;5;3;
48887;PMS5003;42598;53.802;-1.632;2023-03-01T00:28:21;2;2;
48887;PMS5003;42598;53.802;-1.632;2023-03-01T00:30:49;3;3;
48887;PMS5003;42598;53.802;-1.632;2023-03-01T00:33:16;3;2;
48887;PMS5003;42598;53.802;-1.632;2023-03-01T00:35:44;2;2;
48887;PMS5003;42598;53.802;-1.632;2023-03-01T00:38:11;3;3;
48887;PMS5003;42598;53.802;-1.632;2023-03-01T00:40:39;3;3;
48887;PMS5003;42598;53.802;-1.632;2023-03-01T00:43:05;3;3;
48887;PMS5003;42598;53.802;-1.632;2023-03-01T00:45:32;3;3;
48887;PMS5003;42598;53.802;-1.632;2023-03-01T00:48:00;3;3;
48887;PMS5003;42598;53.802;-1.632;2023-03-01T00:50:27;2;2;
48887;PMS5003;42598;53.802;-1.632;2023-03-01T00:52:55;3;2;
48887;PMS5003;42598;53.802;-1.632;2023-03-01T00:55:22;2;2;
48887;PMS5003;42598;53.802;-1.632;2023-03-01T00:57:50;3;3;
48887;PMS5003;42598;53.802;-1.632;2023-03-01T01:00:18;1;1;
48887;PMS5003;42598;53.802;-1.632;2023-03-01T01:02:46;1;0;
48887;PMS5003;42598;53.802;-1.632;2023-03-01T01:05:13;2;1;
48887;PMS5003;42598;53.802;-1.632;2023-03-01T01:07:40;2;2;
48887;PMS5003;42598;53.802;-1.632;2023-03-01T01:10:08;1;1;
48887;PMS5003;42598;53.802;-1.632;2023-03-01T01:12:36;3;3;
48887;PMS5003;42598;53.802;-1.632;2023-03-01T01:15:03;1;1;
48887;PMS5003;42598;53.802;-1.632;2023-03-01T01:17:31;2;2;
48887;PMS5003;42598;53.802;-1.632;2023-03-01T01:19:57;1;1;
48887;PMS5003;42598;53.802;-1.632;2023-03-01T01:22:24;1;1;
48887;PMS5003;42598;53.802;-1.632;2023-03-01T01:24:52;1;1;
48887;PMS5003;42598;53.802;-1.632;2023-03-01T01:27:19;1;1;
48887;PMS5003;42598;53.802;-1.632;2023-03-01T01:29:46;1;1;
48887;PMS5003;42598;53.802;-1.632;2023-03-01T01:32:13;2;1;
48887;PMS5003;42598;53.802;-1.632;2023-03-01T01:34:40;1;1;
48887;PMS5003;42598;53.802;-1.632;2023-03-01T01:37:07;1;1;
48887;PMS5003;42598;53.802;-1.632;2023-03-01T01:39:34;0;0;
48887;PMS5003;42598;53.802;-1.632;2023-03-01T01:42:01;0;0;
48887;PMS5003;42598;53.802;-1.632;2023-03-01T01:44:29;1;1;
48887;PMS5003;42598;53.802;-1.632;2023-03-01T01:46:57;1;1;
48887;PMS5003;42598;53.802;-1.632;2023-03-01T01:49:29;1;1;
48887;PMS5003;42598;53.802;-1.632;2023-03-01T01:52:05;1;1;
48887;PMS5003;42598;53.802;-1.632;2023-03-01T01:54:38;2;2;
48887;PMS5003;42598;53.802;-1.632;2023-03-01T01:57:13;3;1;
48887;PMS5003;42598;53.802;-1.632;2023-03-01T01:59:45;4;3;
48887;PMS5003;42598;53.802;-1.632;2023-03-01T02:02:16;3;3;
48887;PMS5003;42598;53.802;-1.632;2023-03-01T02:04:44;1;1;
48887;PMS5003;42598;53.802;-1.632;2023-03-01T02:07:14;3;3;
48887;PMS5003;42598;53.802;-1.632;2023-03-01T02:09:43;2;2;
48887;PMS5003;42598;53.802;-1.632;2023-03-01T02:12:13;1;1;
48887;PMS5003;42598;53.802;-1.632;2023-03-01T02:14:42;2;1;
48887;PMS5003;42598;53.802;-1.632;2023-03-01T02:17:09;3;3;
48887;PMS5003;42598;53.802;-1.632;2023-03-01T02:19:42;3;3;
48887;PMS5003;42598;53.802;-1.632;2023-03-01T02:22:20;2;1;
48887;PMS5003;42598;53.802;-1.632;2023-03-01T02:24:54;2;2;
48887;PMS5003;42598;53.802;-1.632;2023-03-01T02:27:37;4;3;
48887;PMS5003;42598;53.802;-1.632;2023-03-01T02:30:11;2;1;
48887;PMS5003;42598;53.802;-1.632;2023-03-01T02:32:39;3;3;
48887;PMS5003;42598;53.802;-1.632;2023-03-01T02:35:08;2;1;
48887;PMS5003;42598;53.802;-1.632;2023-03-01T02:37:38;2;2;
48887;PMS5003;42598;53.802;-1.632;2023-03-01T02:40:07;1;1;
48887;PMS5003;42598;53.802;-1.632;2023-03-01T02:42:40;1;1;
48887;PMS5003;42598;53.802;-1.632;2023-03-01T02:45:15;4;3;
48887;PMS5003;42598;53.802;-1.632;2023-03-01T02:47:42;0;0;
48887;PMS5003;42598;53.802;-1.632;2023-03-01T02:50:11;1;1;
48887;PMS5003;42598;53.802;-1.632;2023-03-01T02:52:46;1;1;
48887;PMS5003;42598;53.802;-1.632;2023-03-01T02:55:19;2;2;
48887;PMS5003;42598;53.802;-1.632;2023-03-01T02:57:46;0;0;
48887;PMS5003;42598;53.802;-1.632;2023-03-01T03:00:17;1;1;
48887;PMS5003;42598;53.802;-1.632;2023-03-01T03:02:47;0;0;
48887;PMS5003;42598;53.802;-1.632;2023-03-01T03:05:16;0;0;
48887;PMS5003;42598;53.802;-1.632;2023-03-01T03:07:46;0;0;
48887;PMS5003;42598;53.802;-1.632;2023-03-01T03:10:16;0;0;
48887;PMS5003;42598;53.802;-1.632;2023-03-01T03:12:48;0;0;
48887;PMS5003;42598;53.802;-1.632;2023-03-01T03:15:16;0;0;
48887;PMS5003;42598;53.802;-1.632;2023-03-01T03:17:43;1;1;
48887;PMS5003;42598;53.802;-1.632;2023-03-01T03:20:11;0;0;
48887;PMS5003;42598;53.802;-1.632;2023-03-01T03:22:40;0;0;
48887;PMS5003;42598;53.802;-1.632;2023-03-01T03:25:08;1;1;
48887;PMS5003;42598;53.802;-1.632;2023-03-01T03:27:36;2;2;
48887;PMS5003;42598;53.802;-1.632;2023-03-01T03:30:05;2;2;
48887;PMS5003;42598;53.802;-1.632;2023-03-01T03:32:34;2;1;
48887;PMS5003;42598;53.802;-1.632;2023-03-01T03:35:01;5;2;
48887;PMS5003;42598;53.802;-1.632;2023-03-01T03:37:29;2;2;
48887;PMS5003;42598;53.802;-1.632;2023-03-01T03:39:56;2;2;
48887;PMS5003;42598;53.802;-1.632;2023-03-01T03:42:22;2;2;
48887;PMS5003;42598;53.802;-1.632;2023-03-01T03:44:49;3;3;
48887;PMS5003;42598;53.802;-1.632;2023-03-01T03:47:16;2;2;
48887;PMS5003;42598;53.802;-1.632;2023-03-01T03:49:43;2;2;
48887;PMS5003;42598;53.802;-1.632;2023-03-01T03:52:10;3;3;
48887;PMS5003;42598;53.802;-1.632;2023-03-01T03:54:36;3;3;
48887;PMS5003;42598;53.802;-1.632;2023-03-01T03:57:03;2;2;
48887;PMS5003;42598;53.802;-1.632;2023-03-01T03:59:30;3;3;
48887;PMS5003;42598;53.802;-1.632;2023-03-01T04:01:57;3;3;
48887;PMS5003;42598;53.802;-1.632;2023-03-01T04:04:24;3;3;
48887;PMS5003;42598;53.802;-1.632;2023-03-01T04:06:51;4;3;
48887;PMS5003;42598;53.802;-1.632;2023-03-01T04:09:18;2;2;
48887;PMS5003;42598;53.802;-1.632;2023-03-01T04:11:45;2;1;
48887;PMS5003;42598;53.802;-1.632;2023-03-01T04:14:12;3;2;
48887;PMS5003;42598;53.802;-1.632;2023-03-01T04:16:39;2;1;
48887;PMS5003;42598;53.802;-1.632;2023-03-01T04:19:05;1;1;
48887;PMS5003;42598;53.802;-1.632;2023-03-01T04:21:32;2;2;
48887;PMS5003;42598;53.802;-1.632;2023-03-01T04:23:59;2;1;
48887;PMS5003;42598;53.802;-1.632;2023-03-01T04:26:26;2;2;
48887;PMS5003;42598;53.802;-1.632;2023-03-01T04:28:53;2;2;
48887;PMS5003;42598;53.802;-1.632;2023-03-01T04:31:20;1;1;
48887;PMS5003;42598;53.802;-1.632;2023-03-01T04:33:49;1;1;
48887;PMS5003;42598;53.802;-1.632;2023-03-01T04:36:18;2;2;
48887;PMS5003;42598;53.802;-1.632;2023-03-01T04:38:47;2;1;
48887;PMS5003;42598;53.802;-1.632;2023-03-01T04:41:15;1;1;
48887;PMS5003;42598;53.802;-1.632;2023-03-01T04:43:45;0;0;
48887;PMS5003;42598;53.802;-1.632;2023-03-01T04:46:13;1;1;
48887;PMS5003;42598;53.802;-1.632;2023-03-01T04:48:42;1;1;
48887;PMS5003;42598;53.802;-1.632;2023-03-01T04:51:11;1;0;
48887;PMS5003;42598;53.802;-1.632;2023-03-01T04:53:38;1;1;
48887;PMS5003;42598;53.802;-1.632;2023-03-01T04:56:06;0;0;
48887;PMS5003;42598;53.802;-1.632;2023-03-01T04:58:33;2;2;
48887;PMS5003;42598;53.802;-1.632;2023-03-01T05:01:00;0;0;
48887;PMS5003;42598;53.802;-1.632;2023-03-01T05:03:27;1;1;
48887;PMS5003;42598;53.802;-1.632;2023-03-01T05:05:54;0;0;
48887;PMS5003;42598;53.802;-1.632;2023-03-01T05:08:25;1;1;
48887;PMS5003;42598;53.802;-1.632;2023-03-01T05:10:52;0;0;
48887;PMS5003;42598;53.802;-1.632;2023-03-01T05:13:20;1;0;
48887;PMS5003;42598;53.802;-1.632;2023-03-01T05:15:48;0;0;
48887;PMS5003;42598;53.802;-1.632;2023-03-01T05:18:20;0;0;
48887;PMS5003;42598;53.802;-1.632;2023-03-01T05:20:47;0;0;
48887;PMS5003;42598;53.802;-1.632;2023-03-01T05:23:14;0;0;
48887;PMS5003;42598;53.802;-1.632;2023-03-01T05:25:41;0;0;
48887;PMS5003;42598;53.802;-1.632;2023-03-01T05:28:09;0;0;
48887;PMS5003;42598;53.802;-1.632;2023-03-01T05:30:38;1;1;
48887;PMS5003;42598;53.802;-1.632;2023-03-01T05:33:06;0;0;
48887;PMS5003;42598;53.802;-1.632;2023-03-01T05:35:34;0;0;
48887;PMS5003;42598;53.802;-1.632;2023-03-01T05:38:01;0;0;
48887;PMS5003;42598;53.802;-1.632;2023-03-01T05:40:28;0;0;
48887;PMS5003;42598;53.802;-1.632;2023-03-01T05:42:56;0;0;
48887;PMS5003;42598;53.802;-1.632;2023-03-01T05:45:24;1;1;
48887;PMS5003;42598;53.802;-1.632;2023-03-01T05:47:52;1;1;
48887;PMS5003;42598;53.802;-1.632;2023-03-01T05:50:20;1;1;
48887;PMS5003;42598;53.802;-1.632;2023-03-01T05:52:50;2;2;
48887;PMS5003;42598;53.802;-1.632;2023-03-01T05:55:19;0;0;
48887;PMS5003;42598;53.802;-1.632;2023-03-01T05:57:47;2;2;
48887;PMS5003;42598;53.802;-1.632;2023-03-01T06:00:17;3;2;
48887;PMS5003;42598;53.802;-1.632;2023-03-01T06:02:46;1;1;
48887;PMS5003;42598;53.802;-1.632;2023-03-01T06:05:14;1;1;
48887;PMS5003;42598;53.802;-1.632;2023-03-01T06:07:41;2;1;
48887;PMS5003;42598;53.802;-1.632;2023-03-01T06:10:09;1;1;
48887;PMS5003;42598;53.802;-1.632;2023-03-01T06:12:40;1;1;
48887;PMS5003;42598;53.802;-1.632;2023-03-01T06:15:09;1;1;
48887;PMS5003;42598;53.802;-1.632;2023-03-01T06:17:40;1;1;
48887;PMS5003;42598;53.802;-1.632;2023-03-01T06:20:10;3;3;
48887;PMS5003;42598;53.802;-1.632;2023-03-01T06:22:39;2;2;
48887;PMS5003;42598;53.802;-1.632;2023-03-01T06:25:07;2;2;
48887;PMS5003;42598;53.802;-1.632;2023-03-01T06:27:34;2;2;
48887;PMS5003;42598;53.802;-1.632;2023-03-01T06:30:02;1;1;
48887;PMS5003;42598;53.802;-1.632;2023-03-01T06:32:29;1;1;
48887;PMS5003;42598;53.802;-1.632;2023-03-01T06:34:56;1;1;
48887;PMS5003;42598;53.802;-1.632;2023-03-01T06:37:23;1;1;
48887;PMS5003;42598;53.802;-1.632;2023-03-01T06:39:49;1;1;
48887;PMS5003;42598;53.802;-1.632;2023-03-01T06:42:17;2;2;
48887;PMS5003;42598;53.802;-1.632;2023-03-01T06:44:45;2;2;
48887;PMS5003;42598;53.802;-1.632;2023-03-01T06:47:11;3;3;
48887;PMS5003;42598;53.802;-1.632;2023-03-01T06:49:39;3;2;
48887;PMS5003;42598;53.802;-1.632;2023-03-01T06:52:07;2;2;
48887;PMS5003;42598;53.802;-1.632;2023-03-01T06:54:33;3;3;
48887;PMS5003;42598;53.802;-1.632;2023-03-01T06:57:00;3;2;
48887;PMS5003;42598;53.802;-1.632;2023-03-01T06:59:27;3;3;
48887;PMS5003;42598;53.802;-1.632;2023-03-01T07:01:54;2;2;
48887;PMS5003;42598;53.802;-1.632;2023-03-01T07:04:21;3;3;
48887;PMS5003;42598;53.802;-1.632;2023-03-01T07:06:48;3;3;
48887;PMS5003;42598;53.802;-1.632;2023-03-01T07:09:15;2;2;
48887;PMS5003;42598;53.802;-1.632;2023-03-01T07:11:42;2;2;
48887;PMS5003;42598;53.802;-1.632;2023-03-01T07:14:09;4;3;
48887;PMS5003;42598;53.802;-1.632;2023-03-01T07:16:36;3;2;
48887;PMS5003;42598;53.802;-1.632;2023-03-01T07:19:03;1;1;
48887;PMS5003;42598;53.802;-1.632;2023-03-01T07:21:29;3;2;
48887;PMS5003;42598;53.802;-1.632;2023-03-01T07:23:57;8;8;
48887;PMS5003;42598;53.802;-1.632;2023-03-01T07:26:24;3;3;
48887;PMS5003;42598;53.802;-1.632;2023-03-01T07:28:51;2;1;
48887;PMS5003;42598;53.802;-1.632;2023-03-01T07:31:18;3;2;
48887;PMS5003;42598;53.802;-1.632;2023-03-01T07:33:45;1;1;
48887;PMS5003;42598;53.802;-1.632;2023-03-01T07:36:12;3;2;
48887;PMS5003;42598;53.802;-1.632;2023-03-01T07:38:39;2;2;
48887;PMS5003;42598;53.802;-1.632;2023-03-01T07:41:06;2;2;
48887;PMS5003;42598;53.802;-1.632;2023-03-01T07:43:33;2;2;
48887;PMS5003;42598;53.802;-1.632;2023-03-01T07:46:00;4;4;
48887;PMS5003;42598;53.802;-1.632;2023-03-01T07:48:26;3;3;
48887;PMS5003;42598;53.802;-1.632;2023-03-01T07:50:53;4;3;
48887;PMS5003;42598;53.802;-1.632;2023-03-01T07:53:20;4;3;
48887;PMS5003;42598;53.802;-1.632;2023-03-01T07:55:47;3;2;
48887;PMS5003;42598;53.802;-1.632;2023-03-01T07:58:14;5;3;
48887;PMS5003;42598;53.802;-1.632;2023-03-01T08:00:41;2;2;
48887;PMS5003;42598;53.802;-1.632;2023-03-01T08:03:08;3;3;
48887;PMS5003;42598;53.802;-1.632;2023-03-01T08:05:35;4;4;
48887;PMS5003;42598;53.802;-1.632;2023-03-01T08:08:02;3;3;
48887;PMS5003;42598;53.802;-1.632;2023-03-01T08:10:30;3;3;
48887;PMS5003;42598;53.802;-1.632;2023-03-01T08:12:57;4;2;
48887;PMS5003;42598;53.802;-1.632;2023-03-01T08:15:24;3;2;
48887;PMS5003;42598;53.802;-1.632;2023-03-01T08:17:51;3;2;
48887;PMS5003;42598;53.802;-1.632;2023-03-01T08:20:18;2;2;
48887;PMS5003;42598;53.802;-1.632;2023-03-01T08:22:44;3;2;
48887;PMS5003;42598;53.802;-1.632;2023-03-01T08:25:11;3;2;
48887;PMS5003;42598;53.802;-1.632;2023-03-01T08:27:38;3;3;
48887;PMS5003;42598;53.802;-1.632;2023-03-01T08:30:05;5;4;
48887;PMS5003;42598;53.802;-1.632;2023-03-01T08:32:35;4;3;
48887;PMS5003;42598;53.802;-1.632;2023-03-01T08:35:03;5;4;
48887;PMS5003;42598;53.802;-1.632;2023-03-01T08:37:30;5;3;
48887;PMS5003;42598;53.802;-1.632;2023-03-01T08:39:57;4;4;
48887;PMS5003;42598;53.802;-1.632;2023-03-01T08:42:24;5;4;
48887;PMS5003;42598;53.802;-1.632;2023-03-01T08:44:52;4;3;
48887;PMS5003;42598;53.802;-1.632;2023-03-01T08:47:18;5;5;
48887;PMS5003;42598;53.802;-1.632;2023-03-01T08:49:45;6;5;
48887;PMS5003;42598;53.802;-1.632;2023-03-01T08:52:12;4;4;
48887;PMS5003;42598;53.802;-1.632;2023-03-01T08:54:39;10;10;
48887;PMS5003;42598;53.802;-1.632;2023-03-01T08:57:06;8;8;
48887;PMS5003;42598;53.802;-1.632;2023-03-01T08:59:33;7;7;
48887;PMS5003;42598;53.802;-1.632;2023-03-01T09:01:59;7;6;
48887;PMS5003;42598;53.802;-1.632;2023-03-01T09:04:26;6;5;
48887;PMS5003;42598;53.802;-1.632;2023-03-01T09:06:53;4;3;
48887;PMS5003;42598;53.802;-1.632;2023-03-01T09:09:20;4;4;
48887;PMS5003;42598;53.802;-1.632;2023-03-01T09:11:47;3;3;
48887;PMS5003;42598;53.802;-1.632;2023-03-01T09:14:14;3;3;
48887;PMS5003;42598;53.802;-1.632;2023-03-01T09:16:41;2;2;
48887;PMS5003;42598;53.802;-1.632;2023-03-01T09:19:09;3;3;
48887;PMS5003;42598;53.802;-1.632;2023-03-01T09:21:35;4;3;
48887;PMS5003;42598;53.802;-1.632;2023-03-01T09:24:04;2;1;
48887;PMS5003;42598;53.802;-1.632;2023-03-01T09:26:32;2;2;
48887;PMS5003;42598;53.802;-1.632;2023-03-01T09:28:58;2;1;
48887;PMS5003;42598;53.802;-1.632;2023-03-01T09:31:25;4;2;
48887;PMS5003;42598;53.802;-1.632;2023-03-01T09:33:52;3;2;
48887;PMS5003;42598;53.802;-1.632;2023-03-01T09:36:21;4;4;
48887;PMS5003;42598;53.802;-1.632;2023-03-01T09:38:49;4;3;
48887;PMS5003;42598;53.802;-1.632;2023-03-01T09:41:22;1;1;
48887;PMS5003;42598;53.802;-1.632;2023-03-01T09:44:03;2;2;
48887;PMS5003;42598;53.802;-1.632;2023-03-01T09:46:40;3;2;
48887;PMS5003;42598;53.802;-1.632;2023-03-01T09:49:10;2;2;
48887;PMS5003;42598;53.802;-1.632;2023-03-01T09:51:41;2;1;
48887;PMS5003;42598;53.802;-1.632;2023-03-01T09:54:09;1;1;
48887;PMS5003;42598;53.802;-1.632;2023-03-01T09:56:39;4;3;
48887;PMS5003;42598;53.802;-1.632;2023-03-01T09:59:15;0;0;
48887;PMS5003;42598;53.802;-1.632;2023-03-01T10:01:50;1;1;
48887;PMS5003;42598;53.802;-1.632;2023-03-01T10:04:26;2;1;
48887;PMS5003;42598;53.802;-1.632;2023-03-01T10:07:07;2;2;
48887;PMS5003;42598;53.802;-1.632;2023-03-01T10:09:44;1;1;
48887;PMS5003;42598;53.802;-1.632;2023-03-01T10:12:14;1;1;
48887;PMS5003;42598;53.802;-1.632;2023-03-01T10:14:47;2;2;
48887;PMS5003;42598;53.802;-1.632;2023-03-01T10:17:25;2;1;
48887;PMS5003;42598;53.802;-1.632;2023-03-01T10:20:01;1;1;
48887;PMS5003;42598;53.802;-1.632;2023-03-01T10:22:41;3;2;
48887;PMS5003;42598;53.802;-1.632;2023-03-01T10:25:08;1;1;
48887;PMS5003;42598;53.802;-1.632;2023-03-01T10:27:42;3;2;
48887;PMS5003;42598;53.802;-1.632;2023-03-01T10:30:17;2;2;
48887;PMS5003;42598;53.802;-1.632;2023-03-01T10:32:48;2;1;
48887;PMS5003;42598;53.802;-1.632;2023-03-01T10:35:20;2;1;
48887;PMS5003;42598;53.802;-1.632;2023-03-01T10:38:05;2;2;
48887;PMS5003;42598;53.802;-1.632;2023-03-01T10:40:34;3;3;
48887;PMS5003;42598;53.802;-1.632;2023-03-01T10:43:03;2;1;
48887;PMS5003;42598;53.802;-1.632;2023-03-01T10:45:32;2;2;
48887;PMS5003;42598;53.802;-1.632;2023-03-01T10:48:03;1;1;
48887;PMS5003;42598;53.802;-1.632;2023-03-01T10:50:33;2;1;
48887;PMS5003;42598;53.802;-1.632;2023-03-01T10:53:01;1;1;
48887;PMS5003;42598;53.802;-1.632;2023-03-01T10:55:31;3;3;
48887;PMS5003;42598;53.802;-1.632;2023-03-01T10:58:16;2;2;
48887;PMS5003;42598;53.802;-1.632;2023-03-01T11:00:46;2;2;
48887;PMS5003;42598;53.802;-1.632;2023-03-01T11:03:17;2;2;
48887;PMS5003;42598;53.802;-1.632;2023-03-01T11:06:06;1;1;
48887;PMS5003;42598;53.802;-1.632;2023-03-01T11:08:47;2;1;
48887;PMS5003;42598;53.802;-1.632;2023-03-01T11:11:18;2;2;
48887;PMS5003;42598;53.802;-1.632;2023-03-01T11:13:53;5;4;
48887;PMS5003;42598;53.802;-1.632;2023-03-01T11:16:23;1;1;
48887;PMS5003;42598;53.802;-1.632;2023-03-01T11:18:56;3;2;
48887;PMS5003;42598;53.802;-1.632;2023-03-01T11:21:25;1;1;
48887;PMS5003;42598;53.802;-1.632;2023-03-01T11:23:54;1;1;
48887;PMS5003;42598;53.802;-1.632;2023-03-01T11:26:23;1;1;
48887;PMS5003;42598;53.802;-1.632;2023-03-01T11:28:50;0;0;
48887;PMS5003;42598;53.802;-1.632;2023-03-01T11:31:23;3;3;
48887;PMS5003;42598;53.802;-1.632;2023-03-01T11:33:54;0;0;
48887;PMS5003;42598;53.802;-1.632;2023-03-01T11:36:28;1;1;
48887;PMS5003;42598;53.802;-1.632;2023-03-01T11:39:02;1;1;
48887;PMS5003;42598;53.802;-1.632;2023-03-01T11:41:38;1;1;
48887;PMS5003;42598;53.802;-1.632;2023-03-01T11:44:09;2;1;
48887;PMS5003;42598;53.802;-1.632;2023-03-01T11:46:49;1;1;
48887;PMS5003;42598;53.802;-1.632;2023-03-01T11:49:49;3;3;
48887;PMS5003;42598;53.802;-1.632;2023-03-01T11:52:29;1;1;
48887;PMS5003;42598;53.802;-1.632;2023-03-01T11:55:12;1;1;
48887;PMS5003;42598;53.802;-1.632;2023-03-01T11:58:05;1;1;
48887;PMS5003;42598;53.802;-1.632;2023-03-01T12:00:44;3;2;
48887;PMS5003;42598;53.802;-1.632;2023-03-01T12:03:27;1;1;
48887;PMS5003;42598;53.802;-1.632;2023-03-01T12:06:12;1;1;
48887;PMS5003;42598;53.802;-1.632;2023-03-01T12:08:54;3;3;
48887;PMS5003;42598;53.802;-1.632;2023-03-01T12:11:32;1;1;
48887;PMS5003;42598;53.802;-1.632;2023-03-01T12:14:13;1;1;
48887;PMS5003;42598;53.802;-1.632;2023-03-01T12:17:05;1;1;
48887;PMS5003;42598;53.802;-1.632;2023-03-01T12:19:45;2;2;
48887;PMS5003;42598;53.802;-1.632;2023-03-01T12:22:29;2;2;
48887;PMS5003;42598;53.802;-1.632;2023-03-01T12:25:00;1;1;
48887;PMS5003;42598;53.802;-1.632;2023-03-01T12:27:43;1;1;
48887;PMS5003;42598;53.802;-1.632;2023-03-01T12:30:25;2;2;
48887;PMS5003;42598;53.802;-1.632;2023-03-01T12:33:02;2;1;
48887;PMS5003;42598;53.802;-1.632;2023-03-01T12:36:04;1;1;
48887;PMS5003;42598;53.802;-1.632;2023-03-01T12:38:42;1;1;
48887;PMS5003;42598;53.802;-1.632;2023-03-01T12:41:17;1;1;
48887;PMS5003;42598;53.802;-1.632;2023-03-01T12:44:02;1;0;
48887;PMS5003;42598;53.802;-1.632;2023-03-01T12:46:42;0;0;
48887;PMS5003;42598;53.802;-1.632;2023-03-01T12:49:19;0;0;
48887;PMS5003;42598;53.802;-1.632;2023-03-01T12:51:51;1;1;
48887;PMS5003;42598;53.802;-1.632;2023-03-01T12:54:26;1;1;
48887;PMS5003;42598;53.802;-1.632;2023-03-01T12:56:55;1;1;
48887;PMS5003;42598;53.802;-1.632;2023-03-01T12:59:25;0;0;
48887;PMS5003;42598;53.802;-1.632;2023-03-01T13:02:01;0;0;
48887;PMS5003;42598;53.802;-1.632;2023-03-01T13:04:40;0;0;
48887;PMS5003;42598;53.802;-1.632;2023-03-01T13:07:23;0;0;
48887;PMS5003;42598;53.802;-1.632;2023-03-01T13:09:57;0;0;
48887;PMS5003;42598;53.802;-1.632;2023-03-01T13:12:47;0;0;
48887;PMS5003;42598;53.802;-1.632;2023-03-01T13:15:26;0;0;
48887;PMS5003;42598;53.802;-1.632;2023-03-01T13:17:56;0;0;
48887;PMS5003;42598;53.802;-1.632;2023-03-01T13:20:25;0;0;
48887;PMS5003;42598;53.802;-1.632;2023-03-01T13:23:02;0;0;
48887;PMS5003;42598;53.802;-1.632;2023-03-01T13:26:07;0;0;
48887;PMS5003;42598;53.802;-1.632;2023-03-01T13:28:39;0;0;
48887;PMS5003;42598;53.802;-1.632;2023-03-01T13:31:55;0;0;
48887;PMS5003;42598;53.802;-1.632;2023-03-01T13:34:57;0;0;
48887;PMS5003;42598;53.802;-1.632;2023-03-01T13:37:26;0;0;
48887;PMS5003;42598;53.802;-1.632;2023-03-01T13:40:04;0;0;
48887;PMS5003;42598;53.802;-1.632;2023-03-01T13:43:28;0;0;
48887;PMS5003;42598;53.802;-1.632;2023-03-01T13:45:58;1;0;
48887;PMS5003;42598;53.802;-1.632;2023-03-01T13:48:26;1;1;
48887;PMS5003;42598;53.802;-1.632;2023-03-01T13:50:58;1;0;
48887;PMS5003;42598;53.802;-1.632;2023-03-01T13:53:29;0;0;
48887;PMS5003;42598;53.802;-1.632;2023-03-01T13:56:00;1;1;
48887;PMS5003;42598;53.802;-1.632;2023-03-01T13:58:33;0;0;
48887;PMS5003;42598;53.802;-1.632;2023-03-01T14:01:20;1;1;
48887;PMS5003;42598;53.802;-1.632;2023-03-01T14:03:50;0;0;
48887;PMS5003;42598;53.802;-1.632;2023-03-01T14:06:19;0;0;
48887;PMS5003;42598;53.802;-1.632;2023-03-01T14:08:49;1;1;
48887;PMS5003;42598;53.802;-1.632;2023-03-01T14:11:24;1;1;
48887;PMS5003;42598;53.802;-1.632;2023-03-01T14:14:36;0;0;
48887;PMS5003;42598;53.802;-1.632;2023-03-01T14:17:13;1;1;
48887;PMS5003;42598;53.802;-1.632;2023-03-01T14:19:54;1;1;
48887;PMS5003;42598;53.802;-1.632;2023-03-01T14:22:24;1;0;
48887;PMS5003;42598;53.802;-1.632;2023-03-01T14:24:54;2;2;
48887;PMS5003;42598;53.802;-1.632;2023-03-01T14:27:23;1;1;
48887;PMS5003;42598;53.802;-1.632;2023-03-01T14:29:55;3;1;
48887;PMS5003;42598;53.802;-1.632;2023-03-01T14:32:24;1;1;
48887;PMS5003;42598;53.802;-1.632;2023-03-01T14:34:53;0;0;
48887;PMS5003;42598;53.802;-1.632;2023-03-01T14:37:22;0;0;
48887;PMS5003;42598;53.802;-1.632;2023-03-01T14:39:52;4;3;
48887;PMS5003;42598;53.802;-1.632;2023-03-01T14:42:21;1;1;
48887;PMS5003;42598;53.802;-1.632;2023-03-01T14:44:51;1;0;
48887;PMS5003;42598;53.802;-1.632;2023-03-01T14:47:23;0;0;
48887;PMS5003;42598;53.802;-1.632;2023-03-01T14:49:55;0;0;
48887;PMS5003;42598;53.802;-1.632;2023-03-01T14:52:27;1;0;
48887;PMS5003;42598;53.802;-1.632;2023-03-01T14:55:00;1;1;
48887;PMS5003;42598;53.802;-1.632;2023-03-01T14:57:30;0;0;
48887;PMS5003;42598;53.802;-1.632;2023-03-01T14:59:58;0;0;
48887;PMS5003;42598;53.802;-1.632;2023-03-01T15:02:27;2;1;
48887;PMS5003;42598;53.802;-1.632;2023-03-01T15:04:57;1;1;
48887;PMS5003;42598;53.802;-1.632;2023-03-01T15:07:27;0;0;
48887;PMS5003;42598;53.802;-1.632;2023-03-01T15:09:57;0;0;
48887;PMS5003;42598;53.802;-1.632;2023-03-01T15:12:41;1;1;
48887;PMS5003;42598;53.802;-1.632;2023-03-01T15:15:41;3;2;
48887;PMS5003;42598;53.802;-1.632;2023-03-01T15:18:14;0;0;
48887;PMS5003;42598;53.802;-1.632;2023-03-01T15:20:44;2;1;
48887;PMS5003;42598;53.802;-1.632;2023-03-01T15:23:16;1;0;
48887;PMS5003;42598;53.802;-1.632;2023-03-01T15:25:48;0;0;
48887;PMS5003;42598;53.802;-1.632;2023-03-01T15:28:18;1;1;
48887;PMS5003;42598;53.802;-1.632;2023-03-01T15:30:51;1;1;
48887;PMS5003;42598;53.802;-1.632;2023-03-01T15:33:30;1;1;
48887;PMS5003;42598;53.802;-1.632;2023-03-01T15:36:00;0;0;
48887;PMS5003;42598;53.802;-1.632;2023-03-01T15:38:31;0;0;
48887;PMS5003;42598;53.802;-1.632;2023-03-01T15:41:00;1;0;
48887;PMS5003;42598;53.802;-1.632;2023-03-01T15:43:50;1;0;
48887;PMS5003;42598;53.802;-1.632;2023-03-01T15:46:19;1;1;
48887;PMS5003;42598;53.802;-1.632;2023-03-01T15:48:51;2;2;
48887;PMS5003;42598;53.802;-1.632;2023-03-01T15:51:22;1;1;
48887;PMS5003;42598;53.802;-1.632;2023-03-01T15:53:54;0;0;
48887;PMS5003;42598;53.802;-1.632;2023-03-01T15:56:22;3;1;
48887;PMS5003;42598;53.802;-1.632;2023-03-01T15:58:49;1;1;
48887;PMS5003;42598;53.802;-1.632;2023-03-01T16:01:16;1;1;
48887;PMS5003;42598;53.802;-1.632;2023-03-01T16:03:44;1;1;
48887;PMS5003;42598;53.802;-1.632;2023-03-01T16:06:11;0;0;
48887;PMS5003;42598;53.802;-1.632;2023-03-01T16:08:39;1;1;
48887;PMS5003;42598;53.802;-1.632;2023-03-01T16:11:09;1;1;
48887;PMS5003;42598;53.802;-1.632;2023-03-01T16:13:42;2;2;
48887;PMS5003;42598;53.802;-1.632;2023-03-01T16:16:10;1;1;
48887;PMS5003;42598;53.802;-1.632;2023-03-01T16:18:38;1;1;
48887;PMS5003;42598;53.802;-1.632;2023-03-01T16:21:05;1;1;
48887;PMS5003;42598;53.802;-1.632;2023-03-01T16:23:32;1;1;
48887;PMS5003;42598;53.802;-1.632;2023-03-01T16:25:59;3;3;
48887;PMS5003;42598;53.802;-1.632;2023-03-01T16:28:26;1;1;
48887;PMS5003;42598;53.802;-1.632;2023-03-01T16:30:53;1;1;
48887;PMS5003;42598;53.802;-1.632;2023-03-01T16:33:20;2;1;
48887;PMS5003;42598;53.802;-1.632;2023-03-01T16:35:46;2;1;
48887;PMS5003;42598;53.802;-1.632;2023-03-01T16:38:13;4;2;
48887;PMS5003;42598;53.802;-1.632;2023-03-01T16:40:40;1;1;
48887;PMS5003;42598;53.802;-1.632;2023-03-01T16:43:14;1;1;
48887;PMS5003;42598;53.802;-1.632;2023-03-01T16:45:41;1;0;
48887;PMS5003;42598;53.802;-1.632;2023-03-01T16:48:08;1;1;
48887;PMS5003;42598;53.802;-1.632;2023-03-01T16:50:35;1;0;
48887;PMS5003;42598;53.802;-1.632;2023-03-01T16:53:02;1;1;
48887;PMS5003;42598;53.802;-1.632;2023-03-01T16:55:30;1;1;
48887;PMS5003;42598;53.802;-1.632;2023-03-01T16:57:57;1;1;